Strona główna
METAR-TAF:

METAR-TAF

Lotnisko :

Fitchburg, Massachusetts, Stany Zjednoczone

Szerokość geograficzna: 42-33-07N, Długość geograficzna: 071-45-21W, wysokość: 106 m

Aktualna obserwacja pogody

Raport powstał 1 godzina i 4 minut temu, godzina 01:52 UTC
Wiatr 8 kt od południowy zachód
Temperatura 12°C
Wilgotność 67%
Ciśnienie 1015 hPa
Widzialność: 16.1 km
Mało chmury na wysokości 6000 ft

METAR: KFIT 060152Z AUTO 22008KT 10SM FEW060 12/06 A2996 RMK AO2 SLP148 T01170056

czas: 22:56 (02:56 UTC)


TAF: brakujący

Obserwacja i prognoza pogody dla ponad 4000 lotnisk (raport METAR i TAF).

Dostępne stacje oznaczono żółtymi i czerwonymi punktami na mapie.

Najedź kursorem aby zobaczyć nazwę stacji.

Kliknij aby zobaczyć obserwacje i prognozy pogody.

Aby zmienić mapę: kliknij na zielony przycisk z czarnym krzyżykiem, aby powiększyć; na zielony przycisk z myślnikiem, aby pomniejszyć; na zielone strzałki, aby przejść do map sąsiednich.


METAR-TAF: